Garre, Argentina
Current Conditions -  °F | °C
As of 10:00 PM on Tuesday 21 Oct 2014 (Local Time) from SAOC Reporting Station
Clear Clear  
Wind Chill: 73°   Ceiling: Unl
Heat Index: 73°   Visibility: 6mi
Dew Point: 57°   Wind: 18mph
Humidity: 57%   Direction: 360°N
Pressure: 29.94"   Gusts: NA
Location:  36.57°S, 62.6°W
Report Text: SAOC 220100Z 36016KT CAVOK 23/14 Q1014
Loading
Personal Weather Stations






























Interactive Weather Map
Tropical Storm Tracking
New forecast layout! Learn more

10-Day Weather Forecast

Advertisements
Track Severe Weather on mobile